createdAt,value
2018-08-06T00:00:01.471Z,74.55
2018-08-06T00:02:59.519Z,74.85
2018-08-06T00:05:57.350Z,75.02
2018-08-06T00:08:55.728Z,74.64
2018-08-06T00:11:53.898Z,75.47
2018-08-06T00:14:52.076Z,74.43
2018-08-06T00:17:51.215Z,74.28
2018-08-06T00:20:49.177Z,73.57
2018-08-06T00:23:47.226Z,73.45
2018-08-06T00:26:46.443Z,72.87
2018-08-06T00:29:44.926Z,73.25
2018-08-06T00:32:44.067Z,73.06
2018-08-06T00:35:42.009Z,73.18
2018-08-06T00:38:40.123Z,74.37
2018-08-06T00:41:38.075Z,74.71
2018-08-06T00:44:36.079Z,76.22
2018-08-06T00:47:34.432Z,76.82
2018-08-06T00:50:33.695Z,77.13
2018-08-06T00:53:32.235Z,76.84
2018-08-06T00:56:31.247Z,77.50
2018-08-06T00:59:29.896Z,77.53
2018-08-06T01:02:27.857Z,77.64
2018-08-06T01:05:25.952Z,78.10
2018-08-06T01:08:24.494Z,77.93
2018-08-06T01:11:22.471Z,78.60
2018-08-06T01:14:21.539Z,78.79
2018-08-06T01:17:19.900Z,79.39
2018-08-06T01:20:22.671Z,78.93
2018-08-06T01:23:21.691Z,79.29
2018-08-06T01:26:19.789Z,78.81
2018-08-06T01:29:17.974Z,79.36
2018-08-06T01:32:15.672Z,79.12
2018-08-06T01:35:14.945Z,78.71
2018-08-06T01:38:12.910Z,78.86
2018-08-06T01:41:10.971Z,79.00
2018-08-06T01:44:10.233Z,78.99
2018-08-06T01:47:08.463Z,79.18
2018-08-06T01:50:06.530Z,78.95
2018-08-06T01:53:04.749Z,78.58
2018-08-06T01:56:02.878Z,78.32
2018-08-06T01:59:00.970Z,78.28
2018-08-06T02:01:58.978Z,77.78
2018-08-06T02:04:57.143Z,77.45
2018-08-06T02:07:54.821Z,77.17
2018-08-06T02:10:52.895Z,77.47
2018-08-06T02:13:50.833Z,77.26
2018-08-06T02:16:49.126Z,77.83
2018-08-06T02:19:48.495Z,78.09
2018-08-06T02:22:46.977Z,78.66
2018-08-06T02:25:45.531Z,79.12
2018-08-06T02:28:43.827Z,78.67
2018-08-06T02:31:41.665Z,79.67
2018-08-06T02:34:42.817Z,79.69
2018-08-06T02:37:40.922Z,79.66
2018-08-06T02:40:40.005Z,79.39
2018-08-06T02:43:37.839Z,79.90
2018-08-06T02:46:35.948Z,79.92
2018-08-06T02:49:33.983Z,79.72
2018-08-06T02:52:32.212Z,80.03
2018-08-06T02:55:31.267Z,80.40
2018-08-06T02:58:30.229Z,82.04
2018-08-06T03:01:28.679Z,82.99
2018-08-06T03:04:26.720Z,83.51
2018-08-06T03:07:24.816Z,83.84
2018-08-06T03:10:22.810Z,84.66
2018-08-06T03:13:21.250Z,85.41
2018-08-06T03:16:19.402Z,85.62
2018-08-06T03:19:17.258Z,85.57
2018-08-06T03:22:15.473Z,85.57
2018-08-06T03:25:13.730Z,85.68
2018-08-06T03:28:12.324Z,84.99
2018-08-06T03:31:10.897Z,84.60
2018-08-06T03:34:09.344Z,84.74
2018-08-06T03:37:07.667Z,84.75
2018-08-06T03:40:06.932Z,85.53
2018-08-06T03:43:04.725Z,86.03
2018-08-06T03:46:02.822Z,86.00
2018-08-06T03:49:00.927Z,87.07
2018-08-06T03:51:58.849Z,87.00
2018-08-06T03:54:58.010Z,87.10
2018-08-06T03:57:56.186Z,87.22
2018-08-06T04:00:54.095Z,87.33
2018-08-06T04:03:52.050Z,87.67
2018-08-06T04:06:50.226Z,87.69
2018-08-06T04:09:48.322Z,87.73
2018-08-06T04:12:46.252Z,87.99
2018-08-06T04:15:44.518Z,87.60
2018-08-06T04:18:42.760Z,87.47
2018-08-06T04:21:41.792Z,87.65
2018-08-06T04:24:42.941Z,87.31
2018-08-06T04:27:41.178Z,87.08
2018-08-06T04:30:40.849Z,86.73
2018-08-06T04:33:39.035Z,87.21
2018-08-06T04:36:37.078Z,86.75
2018-08-06T04:39:35.323Z,86.64
2018-08-06T04:42:33.486Z,86.29
2018-08-06T04:45:31.595Z,86.13
2018-08-06T04:48:29.529Z,86.27
2018-08-06T04:51:28.684Z,85.46
2018-08-06T04:54:27.156Z,84.97
2018-08-06T04:57:25.533Z,83.43
2018-08-06T05:00:24.615Z,82.73
2018-08-06T05:03:22.842Z,83.46
2018-08-06T05:06:20.845Z,82.66
2018-08-06T05:09:22.324Z,80.82
2018-08-06T05:12:21.515Z,79.25
2018-08-06T05:15:20.562Z,79.90
2018-08-06T05:18:18.789Z,78.63
2018-08-06T05:21:17.226Z,77.92
2018-08-06T05:24:16.670Z,78.01
2018-08-06T05:27:14.850Z,77.14
2018-08-06T05:30:12.803Z,76.18
2018-08-06T05:33:10.959Z,76.35
2018-08-06T05:36:08.750Z,76.48
2018-08-06T05:39:07.966Z,76.21
2018-08-06T05:42:05.772Z,76.72
2018-08-06T05:45:04.030Z,74.20
2018-08-06T05:48:02.171Z,73.20
2018-08-06T05:51:02.199Z,71.77
2018-08-06T05:54:00.524Z,71.58
2018-08-06T05:56:59.023Z,71.13
2018-08-06T05:59:57.081Z,70.60
2018-08-06T06:02:56.176Z,71.76
2018-08-06T06:05:54.342Z,70.58
2018-08-06T06:08:53.950Z,70.71
2018-08-06T06:11:52.496Z,69.67
2018-08-06T06:14:50.974Z,68.42
2018-08-06T06:17:49.795Z,68.25
2018-08-06T06:20:48.121Z,67.92
2018-08-06T06:23:46.474Z,64.61
2018-08-06T06:26:44.765Z,62.02
2018-08-06T06:29:42.910Z,60.74
2018-08-06T06:32:41.282Z,59.64
2018-08-06T06:35:39.559Z,59.20
2018-08-06T06:38:38.093Z,57.72
2018-08-06T06:41:35.934Z,58.42
2018-08-06T06:44:33.954Z,59.25
2018-08-06T06:47:31.953Z,58.43
2018-08-06T06:50:30.218Z,58.13
2018-08-06T06:53:28.218Z,58.77
2018-08-06T06:56:26.440Z,58.63
2018-08-06T06:59:24.526Z,57.17
2018-08-06T07:02:22.717Z,57.23
2018-08-06T07:05:21.949Z,56.91
2018-08-06T07:08:20.419Z,58.77
2018-08-06T07:11:18.069Z,56.41
2018-08-06T07:14:16.569Z,57.01
2018-08-06T07:17:14.803Z,56.97
2018-08-06T07:20:13.163Z,56.15
2018-08-06T07:23:11.117Z,56.74
2018-08-06T07:26:09.489Z,56.51
2018-08-06T07:29:07.376Z,56.09
2018-08-06T07:32:05.921Z,57.32
2018-08-06T07:35:03.688Z,56.54
2018-08-06T07:46:12.687Z,54.16
2018-08-06T07:49:10.938Z,55.08
2018-08-06T07:52:09.171Z,54.94
2018-08-06T07:55:07.275Z,53.55
2018-08-06T07:58:05.696Z,53.40
2018-08-06T08:01:03.667Z,55.73
2018-08-06T08:04:02.295Z,52.84
2018-08-06T08:07:00.452Z,52.78
2018-08-06T08:09:59.368Z,53.28
2018-08-06T08:12:57.451Z,52.95
2018-08-06T08:15:55.473Z,53.74
2018-08-06T08:18:53.686Z,51.39
2018-08-06T08:21:51.855Z,52.61
2018-08-06T08:24:50.020Z,52.86
2018-08-06T08:27:49.223Z,52.48
2018-08-06T08:30:48.331Z,51.36
2018-08-06T08:33:46.203Z,50.98
2018-08-06T08:36:44.161Z,49.91
2018-08-06T08:39:42.231Z,50.51
2018-08-06T08:42:40.231Z,51.19
2018-08-06T08:45:39.574Z,50.29
2018-08-06T08:48:37.473Z,49.71
2018-08-06T08:51:35.965Z,50.42
2018-08-06T08:54:34.797Z,50.16
2018-08-06T08:57:34.485Z,48.18
2018-08-06T09:00:35.335Z,48.02
2018-08-06T09:03:33.662Z,48.78
2018-08-06T09:06:31.583Z,47.73
2018-08-06T09:09:31.071Z,47.20
2018-08-06T09:12:29.303Z,48.05
2018-08-06T09:15:35.576Z,47.38
2018-08-06T09:18:34.996Z,47.30
2018-08-06T09:21:33.499Z,46.85
2018-08-06T09:24:31.859Z,47.00
2018-08-06T09:27:30.429Z,47.59
2018-08-06T09:30:32.004Z,47.15
2018-08-06T09:33:31.355Z,45.93
2018-08-06T09:36:29.264Z,46.74
2018-08-06T09:39:29.226Z,47.30
2018-08-06T09:42:27.491Z,47.75
2018-08-06T09:45:27.079Z,46.48
2018-08-06T09:48:25.871Z,46.31
2018-08-06T09:51:24.240Z,45.93
2018-08-06T09:54:23.293Z,45.69
2018-08-06T09:57:21.667Z,45.83
2018-08-06T10:00:27.273Z,45.55
2018-08-06T10:03:25.575Z,46.50
2018-08-06T10:06:23.837Z,43.85
2018-08-06T10:09:23.432Z,43.98
2018-08-06T10:12:21.651Z,45.18
2018-08-06T10:15:21.088Z,44.16
2018-08-06T10:18:19.057Z,45.50
2018-08-06T10:21:17.256Z,43.51
2018-08-06T10:24:15.395Z,44.63
2018-08-06T10:27:14.692Z,43.13
2018-08-06T10:30:13.397Z,41.71
2018-08-06T10:33:11.444Z,42.96
2018-08-06T10:36:09.878Z,44.77
2018-08-06T10:39:09.068Z,43.61
2018-08-06T10:42:08.572Z,42.32
2018-08-06T10:45:07.028Z,42.35
2018-08-06T10:48:06.108Z,42.58
2018-08-06T10:51:05.370Z,43.21
2018-08-06T10:54:03.396Z,42.96
2018-08-06T10:57:01.552Z,43.45
2018-08-06T10:59:59.600Z,43.98
2018-08-06T11:02:59.070Z,43.55
2018-08-06T11:05:56.812Z,41.34
2018-08-06T11:08:54.829Z,39.50
2018-08-06T11:11:53.115Z,39.48
2018-08-06T11:14:51.408Z,38.39
2018-08-06T11:17:50.599Z,38.19
2018-08-06T11:20:49.164Z,39.01
2018-08-06T11:23:46.991Z,38.76
2018-08-06T11:26:45.015Z,36.21
2018-08-06T11:29:43.147Z,36.15
2018-08-06T11:32:41.563Z,37.42
2018-08-06T11:35:39.591Z,38.14
2018-08-06T11:38:38.017Z,39.61
2018-08-06T11:41:36.103Z,39.14
2018-08-06T11:44:34.764Z,40.36
2018-08-06T11:47:33.044Z,39.75
2018-08-06T11:50:32.319Z,38.65
2018-08-06T11:53:30.706Z,34.83
2018-08-06T11:56:29.056Z,33.31
2018-08-06T11:59:26.911Z,32.94
2018-08-06T12:02:25.349Z,33.30
2018-08-06T12:05:24.864Z,34.94
2018-08-06T12:08:22.906Z,33.58
2018-08-06T12:11:21.102Z,30.62
2018-08-06T12:14:20.257Z,30.98
2018-08-06T12:17:19.071Z,29.87
2018-08-06T12:20:23.434Z,26.91
2018-08-06T12:23:21.644Z,27.14
2018-08-06T12:26:19.748Z,27.94
2018-08-06T12:29:17.780Z,29.05
2018-08-06T12:32:16.101Z,29.86
2018-08-06T12:35:16.032Z,31.18
2018-08-06T12:38:14.414Z,29.60
2018-08-06T12:41:12.253Z,29.86
2018-08-06T12:44:10.687Z,27.63
2018-08-06T12:47:08.432Z,27.40
2018-08-06T12:50:06.833Z,27.35
2018-08-06T12:53:05.155Z,25.81
2018-08-06T12:56:04.450Z,25.55
2018-08-06T12:59:02.268Z,25.74
2018-08-06T13:02:00.605Z,28.87
2018-08-06T13:04:58.729Z,29.06
2018-08-06T13:07:56.903Z,27.08
2018-08-06T13:10:58.475Z,28.36
2018-08-06T13:13:57.131Z,28.11
2018-08-06T13:16:55.100Z,27.20
2018-08-06T13:19:53.734Z,27.87
2018-08-06T13:22:51.830Z,28.88
2018-08-06T13:25:50.077Z,29.75
2018-08-06T13:28:47.775Z,29.46
2018-08-06T13:31:45.890Z,28.88
2018-08-06T13:34:44.937Z,27.57
2018-08-06T13:37:43.446Z,26.82
2018-08-06T13:40:41.972Z,28.17
2018-08-06T13:43:40.120Z,30.35
2018-08-06T13:46:38.183Z,31.67
2018-08-06T13:49:37.548Z,30.66
2018-08-06T13:52:36.452Z,29.17
2018-08-06T13:55:35.170Z,28.00
2018-08-06T13:58:33.264Z,27.71
2018-08-06T14:01:31.485Z,27.81
2018-08-06T14:04:29.362Z,27.38
2018-08-06T14:07:27.814Z,27.59
2018-08-06T14:10:26.944Z,27.61
2018-08-06T14:13:25.198Z,26.75
2018-08-06T14:16:24.413Z,26.58
2018-08-06T14:19:22.585Z,25.34
2018-08-06T14:22:20.717Z,25.32
2018-08-06T14:25:20.918Z,26.77
2018-08-06T14:28:18.981Z,25.63
2018-08-06T14:31:17.113Z,25.90
2018-08-06T14:34:15.814Z,25.52
2018-08-06T14:37:14.151Z,25.61
2018-08-06T14:40:12.498Z,26.34
2018-08-06T14:43:10.789Z,26.26
2018-08-06T14:46:09.802Z,27.47
2018-08-06T14:49:08.106Z,24.98
2018-08-06T14:52:06.038Z,25.52
2018-08-06T14:55:04.363Z,23.77
2018-08-06T14:58:03.159Z,24.15
2018-08-06T15:01:01.555Z,22.81
2018-08-06T15:03:59.800Z,23.57
2018-08-06T15:06:59.561Z,25.09
2018-08-06T15:09:58.383Z,24.76
2018-08-06T15:12:56.819Z,24.44
2018-08-06T15:15:55.306Z,24.99
2018-08-06T15:18:53.490Z,24.65
2018-08-06T15:21:52.258Z,24.37
2018-08-06T15:24:50.994Z,25.69
2018-08-06T15:27:50.489Z,25.34
2018-08-06T15:30:48.860Z,24.13
2018-08-06T15:33:46.937Z,24.28
2018-08-06T15:36:45.077Z,24.79
2018-08-06T15:39:43.169Z,23.06
2018-08-06T15:42:44.692Z,23.39
2018-08-06T15:45:42.379Z,25.21
2018-08-06T15:48:40.759Z,25.36
2018-08-06T15:51:38.959Z,24.94
2018-08-06T15:54:38.067Z,24.59
2018-08-06T15:57:36.746Z,24.16
2018-08-06T16:00:36.044Z,26.22
2018-08-06T16:03:34.273Z,26.13
2018-08-06T16:06:32.726Z,25.84
2018-08-06T16:09:31.706Z,26.16
2018-08-06T16:12:30.697Z,25.71
2018-08-06T16:15:30.903Z,25.00
2018-08-06T16:18:29.423Z,24.76
2018-08-06T16:21:27.556Z,24.42
2018-08-06T16:24:26.013Z,23.39
2018-08-06T16:27:24.084Z,23.02
2018-08-06T16:30:29.417Z,23.52
2018-08-06T16:33:27.266Z,23.12
2018-08-06T16:36:25.343Z,23.62
2018-08-06T16:39:25.632Z,24.52
2018-08-06T16:42:23.675Z,24.12
2018-08-06T16:45:21.662Z,23.94
2018-08-06T16:48:19.903Z,24.31
2018-08-06T16:51:17.988Z,24.32
2018-08-06T16:54:17.233Z,25.69
2018-08-06T16:57:15.060Z,26.10
2018-08-06T17:00:14.298Z,26.01
2018-08-06T17:03:13.190Z,27.09
2018-08-06T17:06:11.649Z,27.63
2018-08-06T17:09:09.619Z,28.72
2018-08-06T17:12:08.269Z,28.48
2018-08-06T17:15:06.068Z,29.64
2018-08-06T17:18:05.091Z,29.40
2018-08-06T17:21:04.127Z,29.25
2018-08-06T17:24:02.651Z,30.38
2018-08-06T17:27:01.165Z,30.06
2018-08-06T17:29:59.398Z,30.95
2018-08-06T17:32:57.343Z,32.20
2018-08-06T17:35:55.655Z,32.16
2018-08-06T17:38:53.481Z,32.50
2018-08-06T17:41:52.911Z,32.64
2018-08-06T17:44:50.945Z,33.57
2018-08-06T17:47:48.951Z,34.82
2018-08-06T17:50:47.832Z,34.88
2018-08-06T17:53:46.116Z,35.00
2018-08-06T17:56:44.054Z,34.84
2018-08-06T17:59:42.673Z,35.17
2018-08-06T18:02:42.907Z,35.29
2018-08-06T18:05:41.340Z,36.40
2018-08-06T18:08:39.332Z,37.98
2018-08-06T18:11:37.357Z,38.36
2018-08-06T18:14:35.784Z,39.16
2018-08-06T18:17:34.400Z,39.77
2018-08-06T18:20:33.988Z,40.66
2018-08-06T18:23:32.868Z,41.38
2018-08-06T18:26:31.772Z,42.73
2018-08-06T18:29:31.144Z,42.81
2018-08-06T18:32:30.012Z,43.20
2018-08-06T18:35:29.313Z,44.01
2018-08-06T18:38:27.294Z,45.91
2018-08-06T18:41:25.939Z,44.33
2018-08-06T18:44:24.103Z,45.12
2018-08-06T18:47:22.459Z,44.61
2018-08-06T18:50:22.975Z,47.03
2018-08-06T18:53:21.247Z,48.71
2018-08-06T18:56:19.263Z,48.81
2018-08-06T18:59:18.891Z,48.98
2018-08-06T19:02:16.990Z,51.99
2018-08-06T19:05:16.760Z,55.18
2018-08-06T19:08:16.251Z,54.25
2018-08-06T19:11:15.121Z,55.49
2018-08-06T19:14:20.274Z,56.66
2018-08-06T19:17:19.031Z,57.31
2018-08-06T19:20:17.414Z,58.33
2018-08-06T19:23:16.102Z,58.64
2018-08-06T19:26:15.695Z,58.90
2018-08-06T19:29:14.445Z,60.82
2018-08-06T19:32:12.410Z,61.95
2018-08-06T19:35:10.901Z,62.91
2018-08-06T19:38:09.227Z,63.67
2018-08-06T19:41:07.900Z,64.84
2018-08-06T19:44:06.635Z,64.19
2018-08-06T19:47:04.891Z,64.25
2018-08-06T19:51:08.575Z,66.30
2018-08-06T19:54:07.296Z,66.75
2018-08-06T19:57:05.354Z,65.06
2018-08-06T20:00:03.882Z,66.30
2018-08-06T20:03:01.746Z,67.71
2018-08-06T20:06:00.115Z,68.56
2018-08-06T20:08:58.180Z,68.30
2018-08-06T20:11:56.419Z,69.78
2018-08-06T20:14:54.564Z,70.35
2018-08-06T20:17:53.023Z,71.00
2018-08-06T20:20:51.516Z,71.98
2018-08-06T20:23:49.813Z,73.10
2018-08-06T20:26:48.214Z,70.78
2018-08-06T20:29:46.956Z,70.59
2018-08-06T20:32:46.070Z,72.34
2018-08-06T20:35:44.706Z,72.69
2018-08-06T20:38:42.633Z,72.76
2018-08-06T20:41:41.150Z,73.64
2018-08-06T20:44:39.631Z,73.65
2018-08-06T20:47:38.011Z,74.80
2018-08-06T20:50:38.408Z,75.92
2018-08-06T20:53:37.725Z,75.71
2018-08-06T20:56:36.878Z,76.10
2018-08-06T20:59:35.379Z,76.50
2018-08-06T21:02:36.660Z,76.27
2018-08-06T21:05:34.570Z,76.16
2018-08-06T21:08:32.945Z,77.09
2018-08-06T21:11:31.361Z,79.63
2018-08-06T21:14:29.243Z,80.29
2018-08-06T21:17:27.332Z,79.47
2018-08-06T21:20:27.499Z,79.42
2018-08-06T21:23:27.103Z,78.04
2018-08-06T21:26:26.302Z,76.91
2018-08-06T21:29:24.687Z,77.51
2018-08-06T21:32:23.240Z,77.91
2018-08-06T21:35:23.481Z,77.89
2018-08-06T21:38:21.984Z,78.59
2018-08-06T21:41:20.286Z,78.79
2018-08-06T21:44:18.768Z,79.63
2018-08-06T21:47:17.961Z,79.49
2018-08-06T21:50:16.759Z,77.77
2018-08-06T21:53:14.847Z,78.52
2018-08-06T21:56:14.923Z,78.35
2018-08-06T21:59:13.247Z,78.70
2018-08-06T22:02:11.746Z,79.15
2018-08-06T22:05:09.770Z,80.00
2018-08-06T22:08:08.890Z,80.59
2018-08-06T22:11:07.029Z,80.61
2018-08-06T22:14:06.382Z,80.19
2018-08-06T22:17:05.067Z,80.37
2018-08-06T22:20:03.612Z,81.12
2018-08-06T22:23:03.035Z,81.57
2018-08-06T22:26:01.384Z,82.22
2018-08-06T22:28:59.150Z,82.53
2018-08-06T22:31:58.625Z,82.44
2018-08-06T22:34:57.596Z,81.34
2018-08-06T22:37:55.783Z,81.88
2018-08-06T22:40:54.749Z,82.05
2018-08-06T22:43:53.206Z,81.82
2018-08-06T22:46:51.405Z,81.79
2018-08-06T22:49:49.838Z,81.26
2018-08-06T22:52:48.755Z,81.35
2018-08-06T22:55:52.975Z,82.15
2018-08-06T22:58:51.513Z,83.31
2018-08-06T23:01:50.481Z,83.93
2018-08-06T23:04:48.462Z,84.12
2018-08-06T23:07:47.158Z,83.68
2018-08-06T23:10:45.295Z,84.31
2018-08-06T23:13:43.984Z,84.96
2018-08-06T23:16:42.227Z,85.99
2018-08-06T23:19:42.016Z,86.40
2018-08-06T23:22:39.983Z,86.47
2018-08-06T23:25:37.881Z,86.04
2018-08-06T23:28:36.130Z,86.29
2018-08-06T23:31:34.663Z,84.84
2018-08-06T23:34:32.503Z,84.64
2018-08-06T23:37:31.811Z,84.29
2018-08-06T23:40:29.779Z,84.05
2018-08-06T23:43:29.254Z,84.41
2018-08-06T23:46:27.131Z,83.53
2018-08-06T23:49:25.477Z,83.93
2018-08-06T23:52:23.868Z,85.67
2018-08-06T23:55:22.976Z,87.59
2018-08-06T23:58:21.000Z,88.46
